createdAt,value
2019-04-19T00:01:34.287Z,7.20
2019-04-19T00:04:12.187Z,7.43
2019-04-19T00:06:43.379Z,4.83
2019-04-19T00:09:28.526Z,8.10
2019-04-19T00:11:59.121Z,6.00
2019-04-19T00:14:19.418Z,10.80
2019-04-19T00:16:51.088Z,4.30
2019-04-19T00:19:39.945Z,7.00
2019-04-19T00:22:14.262Z,5.77
2019-04-19T00:24:26.937Z,6.00
2019-04-19T00:26:57.529Z,7.40
2019-04-19T00:29:39.611Z,8.30
2019-04-19T00:32:16.960Z,11.10
2019-04-19T00:34:33.681Z,11.67
2019-04-19T00:37:05.738Z,10.40
2019-04-19T00:40:05.001Z,8.33
2019-04-19T00:43:01.720Z,7.20
2019-04-19T00:46:00.870Z,17.20
2019-04-19T00:48:31.791Z,6.80
2019-04-19T00:51:02.310Z,7.33
2019-04-19T00:53:28.317Z,8.10
2019-04-19T00:56:00.815Z,11.30
2019-04-19T00:58:29.782Z,8.50
2019-04-19T01:01:05.977Z,9.30
2019-04-19T01:03:38.560Z,8.37
2019-04-19T01:06:08.393Z,9.17
2019-04-19T01:08:42.028Z,8.50
2019-04-19T01:11:21.177Z,8.87
2019-04-19T01:14:13.845Z,21.60
2019-04-19T01:16:51.683Z,13.00
2019-04-19T01:19:09.300Z,13.20
2019-04-19T01:21:37.051Z,12.47
2019-04-19T01:24:08.433Z,10.20
2019-04-19T01:26:45.942Z,10.73
2019-04-19T01:29:16.813Z,12.40
2019-04-19T01:31:49.488Z,14.87
2019-04-19T01:34:23.995Z,9.53
2019-04-19T01:36:52.704Z,12.40
2019-04-19T01:39:36.317Z,10.80
2019-04-19T01:42:09.720Z,11.40
2019-04-19T01:44:54.494Z,9.87
2019-04-19T01:48:01.947Z,13.60
2019-04-19T01:50:52.840Z,10.00
2019-04-19T01:53:25.361Z,12.43
2019-04-19T01:55:41.528Z,10.43
2019-04-19T01:58:16.181Z,11.00
2019-04-19T02:00:48.979Z,15.23
2019-04-19T02:03:16.671Z,11.47
2019-04-19T02:05:53.271Z,15.70
2019-04-19T02:08:21.071Z,22.83
2019-04-19T02:11:39.710Z,10.83
2019-04-19T02:14:08.678Z,10.30
2019-04-19T02:16:33.321Z,11.20
2019-04-19T02:19:09.746Z,12.70
2019-04-19T02:21:42.324Z,12.87
2019-04-19T02:24:10.629Z,15.10
2019-04-19T02:26:49.993Z,13.00
2019-04-19T02:29:20.238Z,9.20
2019-04-19T02:32:15.445Z,15.97
2019-04-19T02:34:47.228Z,10.03
2019-04-19T02:39:56.198Z,11.23
2019-04-19T02:42:32.469Z,13.87
2019-04-19T02:45:03.753Z,11.53
2019-04-19T02:52:52.446Z,12.90
2019-04-19T02:58:04.231Z,10.50
2019-04-19T03:03:24.742Z,20.57
2019-04-19T03:05:47.494Z,20.40
2019-04-19T03:08:04.279Z,19.53
2019-04-19T03:10:49.949Z,23.10
2019-04-19T03:13:21.643Z,22.20
2019-04-19T03:15:54.326Z,23.73
2019-04-19T03:18:42.646Z,25.37
2019-04-19T03:21:00.524Z,25.37
2019-04-19T03:23:30.685Z,24.37
2019-04-19T03:26:04.607Z,21.67
2019-04-19T03:28:34.109Z,22.20
2019-04-19T03:33:59.552Z,25.90
2019-04-19T03:36:20.141Z,29.20
2019-04-19T03:38:48.766Z,33.40
2019-04-19T03:41:40.635Z,32.03
2019-04-19T03:44:15.955Z,30.90
2019-04-19T03:46:58.098Z,32.87
2019-04-19T03:49:30.835Z,30.43
2019-04-19T03:52:04.351Z,31.20
2019-04-19T03:54:28.537Z,26.60
2019-04-19T03:57:03.115Z,31.27
2019-04-19T03:59:18.554Z,24.17
2019-04-19T04:01:53.323Z,25.17
2019-04-19T04:04:26.543Z,24.40
2019-04-19T04:06:54.897Z,22.43
2019-04-19T04:09:43.440Z,21.60
2019-04-19T04:12:34.651Z,22.63
2019-04-19T04:15:14.568Z,18.50
2019-04-19T04:17:35.701Z,20.87
2019-04-19T04:20:07.425Z,19.53
2019-04-19T04:22:42.181Z,21.23
2019-04-19T04:25:19.784Z,17.80
2019-04-19T04:27:53.120Z,20.17
2019-04-19T04:30:26.253Z,20.43
2019-04-19T04:33:01.351Z,22.70
2019-04-19T04:35:36.249Z,20.37
2019-04-19T04:38:04.963Z,19.77
2019-04-19T04:40:27.658Z,22.47
2019-04-19T04:43:08.695Z,21.63
2019-04-19T04:46:01.874Z,22.33
2019-04-19T04:48:38.573Z,23.53
2019-04-19T04:51:18.407Z,25.07
2019-04-19T04:53:36.324Z,20.70
2019-04-19T04:56:12.545Z,23.97
2019-04-19T04:58:46.973Z,20.77
2019-04-19T05:01:32.616Z,22.07
2019-04-19T05:04:07.385Z,23.93
2019-04-19T05:06:35.338Z,21.63
2019-04-19T05:09:19.804Z,24.60
2019-04-19T05:11:51.125Z,24.07
2019-04-19T05:14:28.709Z,25.83
2019-04-19T05:17:12.354Z,22.67
2019-04-19T05:19:41.636Z,23.00
2019-04-19T05:22:08.572Z,24.90
2019-04-19T05:24:45.188Z,24.40
2019-04-19T05:27:14.796Z,23.70
2019-04-19T05:29:34.440Z,23.10
2019-04-19T05:32:11.658Z,24.67
2019-04-19T05:34:52.463Z,27.90
2019-04-19T05:37:17.547Z,24.90
2019-04-19T05:40:04.765Z,25.67
2019-04-19T05:42:49.522Z,21.50
2019-04-19T05:45:35.403Z,22.27
2019-04-19T05:47:49.372Z,19.60
2019-04-19T05:50:33.216Z,18.27
2019-04-19T05:53:00.185Z,21.83
2019-04-19T05:55:18.922Z,19.57
2019-04-19T05:58:03.335Z,19.80
2019-04-19T06:00:40.930Z,18.93
2019-04-19T06:03:13.467Z,17.27
2019-04-19T06:06:02.596Z,18.20
2019-04-19T06:08:15.331Z,15.40
2019-04-19T06:10:46.487Z,16.07
2019-04-19T06:13:15.136Z,14.43
2019-04-19T06:16:07.606Z,19.23
2019-04-19T06:18:44.068Z,17.90
2019-04-19T06:21:23.422Z,12.97
2019-04-19T06:23:58.084Z,11.87
2019-04-19T06:31:37.069Z,14.37
2019-04-19T06:34:03.666Z,14.87
2019-04-19T06:36:19.261Z,11.17
2019-04-19T06:38:50.704Z,10.40
2019-04-19T06:41:25.003Z,14.70
2019-04-19T06:44:05.121Z,11.93
2019-04-19T06:46:40.943Z,12.17
2019-04-19T06:49:05.089Z,9.80
2019-04-19T06:51:41.918Z,13.30
2019-04-19T06:54:09.113Z,9.73
2019-04-19T06:56:41.330Z,9.27
2019-04-19T06:59:20.097Z,11.27
2019-04-19T07:01:49.750Z,11.37
2019-04-19T07:04:17.023Z,8.23
2019-04-19T07:07:09.460Z,9.13
2019-04-19T07:09:45.121Z,7.47
2019-04-19T07:12:13.254Z,7.53
2019-04-19T07:14:29.482Z,7.00
2019-04-19T07:17:15.452Z,7.03
2019-04-19T07:19:52.927Z,10.73
2019-04-19T07:22:14.440Z,7.20
2019-04-19T07:25:01.438Z,7.73
2019-04-19T07:27:22.415Z,9.73
2019-04-19T07:29:40.602Z,7.40
2019-04-19T07:32:12.567Z,8.27
2019-04-19T07:34:57.054Z,7.00
2019-04-19T07:37:30.338Z,8.77
2019-04-19T07:40:16.323Z,8.17
2019-04-19T07:42:39.824Z,7.10
2019-04-19T07:45:04.924Z,7.70
2019-04-19T07:47:48.927Z,7.17
2019-04-19T07:50:19.748Z,6.70
2019-04-19T07:52:52.985Z,7.93
2019-04-19T07:55:17.818Z,6.33
2019-04-19T07:58:24.245Z,7.77
2019-04-19T08:01:12.142Z,7.73
2019-04-19T08:05:54.966Z,8.00
2019-04-19T08:16:04.695Z,7.70
2019-04-19T08:28:37.794Z,7.13
2019-04-19T08:31:02.551Z,10.10
2019-04-19T08:33:32.037Z,10.57
2019-04-19T08:36:07.414Z,9.57
2019-04-19T08:38:35.646Z,6.67
2019-04-19T08:41:57.309Z,6.63
2019-04-19T08:43:57.284Z,7.13
2019-04-19T08:46:32.539Z,14.90
2019-04-19T08:49:28.451Z,20.10
2019-04-19T08:52:08.403Z,8.37
2019-04-19T08:54:59.279Z,17.33
2019-04-19T08:57:14.779Z,16.93
2019-04-19T09:00:08.154Z,26.20
2019-04-19T09:02:34.536Z,17.43
2019-04-19T09:05:04.283Z,18.77
2019-04-19T09:07:46.905Z,20.30
2019-04-19T09:12:48.261Z,20.13
2019-04-19T09:15:18.127Z,19.07
2019-04-19T09:20:28.041Z,21.77
2019-04-19T09:23:04.848Z,19.40
2019-04-19T09:25:55.051Z,20.23
2019-04-19T09:31:04.467Z,22.33
2019-04-19T09:33:26.306Z,18.83
2019-04-19T09:36:01.260Z,21.70
2019-04-19T09:38:39.180Z,22.50
2019-04-19T09:41:03.036Z,21.53
2019-04-19T09:43:42.513Z,22.17
2019-04-19T09:46:02.029Z,36.50
2019-04-19T09:48:51.758Z,25.03
2019-04-19T09:51:25.541Z,25.97
2019-04-19T09:54:15.736Z,23.70
2019-04-19T09:56:27.108Z,20.60
2019-04-19T09:58:53.981Z,22.70
2019-04-19T10:01:23.198Z,25.43
2019-04-19T10:03:56.673Z,23.00
2019-04-19T10:06:24.655Z,22.10
2019-04-19T10:08:56.100Z,23.00
2019-04-19T10:11:27.353Z,23.60
2019-04-19T10:13:58.377Z,29.00
2019-04-19T10:16:42.686Z,23.13
2019-04-19T10:19:14.609Z,21.37
2019-04-19T10:21:52.161Z,24.53
2019-04-19T10:24:24.252Z,26.33
2019-04-19T10:27:33.237Z,21.63
2019-04-19T10:30:06.129Z,21.37
2019-04-19T10:32:38.503Z,25.50
2019-04-19T10:35:09.499Z,20.27
2019-04-19T10:37:40.187Z,28.80
2019-04-19T10:40:13.538Z,23.57
2019-04-19T10:42:45.181Z,23.40
2019-04-19T10:45:16.357Z,27.13
2019-04-19T10:47:49.371Z,24.67
2019-04-19T10:50:32.678Z,26.13
2019-04-19T10:52:54.423Z,24.63
2019-04-19T10:55:29.915Z,23.30
2019-04-19T10:58:01.125Z,21.87
2019-04-19T11:00:33.371Z,27.67
2019-04-19T11:03:05.224Z,24.37
2019-04-19T11:05:39.032Z,23.10
2019-04-19T11:08:09.908Z,20.87
2019-04-19T11:10:41.006Z,20.10
2019-04-19T11:13:12.823Z,30.80
2019-04-19T11:15:44.553Z,21.73
2019-04-19T11:18:15.681Z,18.53
2019-04-19T11:20:49.598Z,21.20
2019-04-19T11:23:19.784Z,19.50
2019-04-19T11:25:52.128Z,23.40
2019-04-19T11:28:22.908Z,20.90
2019-04-19T11:31:02.916Z,18.40
2019-04-19T11:33:34.954Z,25.10
2019-04-19T11:36:05.992Z,27.17
2019-04-19T11:38:36.930Z,27.17
2019-04-19T11:41:11.211Z,32.90
2019-04-19T11:43:43.255Z,30.73
2019-04-19T11:46:16.068Z,30.20
2019-04-19T11:48:49.890Z,29.23
2019-04-19T11:51:21.591Z,30.17
2019-04-19T11:53:52.490Z,35.80
2019-04-19T11:56:46.006Z,31.23
2019-04-19T11:59:36.995Z,34.37
2019-04-19T12:02:10.235Z,41.10
2019-04-19T12:04:42.009Z,40.50
2019-04-19T12:07:12.963Z,39.57
2019-04-19T12:09:44.787Z,40.03
2019-04-19T12:12:16.989Z,50.20
2019-04-19T12:14:48.559Z,58.67
2019-04-19T12:17:19.490Z,114.80
2019-04-19T12:19:56.070Z,59.20
2019-04-19T12:22:27.516Z,47.23
2019-04-19T12:24:59.457Z,31.20
2019-04-19T12:27:31.741Z,33.43
2019-04-19T12:30:05.440Z,35.27
2019-04-19T12:32:43.588Z,35.10
2019-04-19T12:35:14.443Z,33.87
2019-04-19T12:37:45.047Z,33.40
2019-04-19T12:40:17.059Z,25.20
2019-04-19T12:42:48.256Z,28.73
2019-04-19T12:45:19.877Z,27.70
2019-04-19T12:47:51.158Z,21.80
2019-04-19T12:50:23.852Z,27.03
2019-04-19T12:52:55.841Z,26.67
2019-04-19T12:55:30.204Z,21.87
2019-04-19T12:58:04.048Z,23.47
2019-04-19T13:01:03.826Z,27.23
2019-04-19T13:03:52.567Z,26.83
2019-04-19T13:06:27.424Z,20.30
2019-04-19T13:08:59.239Z,21.80
2019-04-19T13:11:29.749Z,20.20
2019-04-19T13:14:01.708Z,24.47
2019-04-19T13:16:32.815Z,22.77
2019-04-19T13:19:03.785Z,24.57
2019-04-19T13:21:36.366Z,28.40
2019-04-19T13:24:08.669Z,22.07
2019-04-19T13:26:41.561Z,20.53
2019-04-19T13:29:13.328Z,22.00
2019-04-19T13:31:44.979Z,28.23
2019-04-19T13:34:16.849Z,23.50
2019-04-19T13:37:18.934Z,18.93
2019-04-19T13:40:12.315Z,22.33
2019-04-19T13:42:44.767Z,19.10
2019-04-19T13:45:23.498Z,19.90
2019-04-19T13:47:48.916Z,20.83
2019-04-19T13:50:28.259Z,20.60
2019-04-19T13:52:52.904Z,25.70
2019-04-19T13:55:24.452Z,16.90
2019-04-19T13:57:55.676Z,19.73
2019-04-19T14:00:42.636Z,20.10
2019-04-19T14:03:13.817Z,23.50
2019-04-19T14:05:45.786Z,18.57
2019-04-19T14:08:17.401Z,20.77
2019-04-19T14:10:50.907Z,19.20
2019-04-19T14:13:23.147Z,21.33
2019-04-19T14:15:53.974Z,21.57
2019-04-19T14:18:25.030Z,23.60
2019-04-19T14:20:57.517Z,21.50
2019-04-19T14:23:28.498Z,26.03
2019-04-19T14:25:59.362Z,25.80
2019-04-19T14:28:29.873Z,19.90
2019-04-19T14:31:03.221Z,17.80
2019-04-19T14:33:34.849Z,24.00
2019-04-19T14:36:06.223Z,23.20
2019-04-19T14:38:39.465Z,24.47
2019-04-19T14:41:11.523Z,25.53
2019-04-19T14:43:42.766Z,29.03
2019-04-19T14:46:14.386Z,19.57
2019-04-19T14:48:45.353Z,20.50
2019-04-19T14:51:22.265Z,26.20
2019-04-19T14:53:49.804Z,24.27
2019-04-19T14:56:21.728Z,29.47
2019-04-19T14:58:52.673Z,27.50
2019-04-19T15:01:45.204Z,38.30
2019-04-19T15:04:30.886Z,35.57
2019-04-19T15:07:01.979Z,30.80
2019-04-19T15:09:33.318Z,32.20
2019-04-19T15:12:04.642Z,26.30
2019-04-19T15:14:36.778Z,31.10
2019-04-19T15:17:07.806Z,27.20
2019-04-19T15:19:39.691Z,22.47
2019-04-19T15:22:12.386Z,21.97
2019-04-19T15:24:44.561Z,26.47
2019-04-19T15:27:16.981Z,19.17
2019-04-19T15:29:49.956Z,26.80
2019-04-19T15:32:22.202Z,30.77
2019-04-19T15:34:53.803Z,36.63
2019-04-19T15:37:25.603Z,29.20
2019-04-19T15:39:56.440Z,20.03
2019-04-19T15:42:27.209Z,17.80
2019-04-19T15:44:58.670Z,18.87
2019-04-19T15:47:30.708Z,26.03
2019-04-19T15:50:02.374Z,21.63
2019-04-19T15:52:33.266Z,19.90
2019-04-19T15:55:04.366Z,23.00
2019-04-19T15:57:36.262Z,29.33
2019-04-19T16:00:14.077Z,25.13
2019-04-19T16:03:00.083Z,22.10
2019-04-19T16:05:56.049Z,34.47
2019-04-19T16:08:59.044Z,19.90
2019-04-19T16:11:49.059Z,22.67
2019-04-19T16:14:21.786Z,17.33
2019-04-19T16:16:53.436Z,16.27
2019-04-19T16:19:26.553Z,20.43
2019-04-19T16:22:00.591Z,25.27
2019-04-19T16:24:31.393Z,25.07
2019-04-19T16:27:02.697Z,24.00
2019-04-19T16:29:42.234Z,31.40
2019-04-19T16:32:07.094Z,28.60
2019-04-19T16:34:38.786Z,48.43
2019-04-19T16:37:10.392Z,39.33
2019-04-19T16:39:41.961Z,45.80
2019-04-19T16:42:13.277Z,54.93
2019-04-19T16:44:44.212Z,60.10
2019-04-19T16:47:15.417Z,61.97
2019-04-19T16:49:46.824Z,68.23
2019-04-19T16:52:18.586Z,47.60
2019-04-19T16:54:50.234Z,48.33
2019-04-19T16:57:26.797Z,70.60
2019-04-19T16:59:55.676Z,60.63
2019-04-19T17:02:26.946Z,75.37
2019-04-19T17:04:58.818Z,59.17
2019-04-19T17:07:30.286Z,42.27
2019-04-19T17:10:01.849Z,32.90
2019-04-19T17:12:33.361Z,29.67
2019-04-19T17:15:23.327Z,29.30
2019-04-19T17:18:08.824Z,28.57
2019-04-19T17:20:55.604Z,31.37
2019-04-19T17:23:34.992Z,30.97
2019-04-19T17:26:20.097Z,34.77
2019-04-19T17:28:52.900Z,46.53
2019-04-19T17:31:24.444Z,37.27
2019-04-19T17:33:56.174Z,60.17
2019-04-19T17:36:28.318Z,38.70
2019-04-19T17:39:00.177Z,174.57
2019-04-19T17:41:32.366Z,198.73
2019-04-19T17:44:23.840Z,132.83
2019-04-19T17:46:56.298Z,85.43
2019-04-19T17:49:28.679Z,88.87
2019-04-19T17:52:09.361Z,65.93
2019-04-19T17:54:50.119Z,50.43
2019-04-19T17:57:05.221Z,31.57
2019-04-19T17:59:36.477Z,30.97
2019-04-19T18:02:07.707Z,32.10
2019-04-19T18:04:38.407Z,27.73
2019-04-19T18:07:09.752Z,25.50
2019-04-19T18:09:48.527Z,26.80
2019-04-19T18:12:13.935Z,29.90
2019-04-19T18:14:45.729Z,23.10
2019-04-19T18:17:17.008Z,21.73
2019-04-19T18:19:48.592Z,23.93
2019-04-19T18:22:34.385Z,24.30
2019-04-19T18:24:58.252Z,22.07
2019-04-19T18:27:27.798Z,18.13
2019-04-19T18:30:03.317Z,20.40
2019-04-19T18:32:36.377Z,20.17
2019-04-19T18:35:15.049Z,18.73
2019-04-19T18:37:44.037Z,26.27
2019-04-19T18:40:13.216Z,32.27
2019-04-19T18:42:51.087Z,39.50
2019-04-19T18:45:23.635Z,36.60
2019-04-19T18:47:50.747Z,30.20
2019-04-19T18:50:28.501Z,33.20
2019-04-19T18:53:11.878Z,26.87
2019-04-19T18:55:38.405Z,23.43
2019-04-19T18:58:06.582Z,28.70
2019-04-19T19:00:44.542Z,21.33
2019-04-19T19:03:11.995Z,23.83
2019-04-19T19:05:47.882Z,16.67
2019-04-19T19:08:24.135Z,16.60
2019-04-19T19:10:52.336Z,18.30
2019-04-19T19:13:25.681Z,15.13
2019-04-19T19:15:57.700Z,18.20
2019-04-19T19:18:35.023Z,14.80
2019-04-19T19:21:04.563Z,14.53
2019-04-19T19:23:49.664Z,17.60
2019-04-19T19:26:19.385Z,17.10
2019-04-19T19:28:40.627Z,18.77
2019-04-19T19:31:11.938Z,16.47
2019-04-19T19:33:45.064Z,14.30
2019-04-19T19:36:21.493Z,26.13
2019-04-19T19:38:57.966Z,25.53
2019-04-19T19:42:14.272Z,17.93
2019-04-19T19:44:06.505Z,33.10
2019-04-19T19:47:07.201Z,22.87
2019-04-19T19:49:38.502Z,40.13
2019-04-19T19:51:47.795Z,34.93
2019-04-19T19:54:43.356Z,28.10
2019-04-19T19:57:02.951Z,25.27
2019-04-19T19:59:24.996Z,19.60
2019-04-19T20:01:58.642Z,18.40
2019-04-19T20:04:21.509Z,11.23
2019-04-19T20:07:00.159Z,10.97
2019-04-19T20:09:29.059Z,11.27
2019-04-19T20:12:03.981Z,13.53
2019-04-19T20:14:33.654Z,19.30
2019-04-19T20:17:07.945Z,13.67
2019-04-19T20:19:37.429Z,14.90
2019-04-19T20:22:09.263Z,19.23
2019-04-19T20:24:52.666Z,15.70
2019-04-19T20:27:19.080Z,12.50
2019-04-19T20:29:51.988Z,11.67
2019-04-19T20:32:22.168Z,11.10
2019-04-19T20:34:51.923Z,15.40
2019-04-19T20:37:25.101Z,22.20
2019-04-19T20:40:01.485Z,15.20
2019-04-19T20:42:45.880Z,14.90
2019-04-19T20:45:07.087Z,15.10
2019-04-19T20:47:33.559Z,13.57
2019-04-19T20:50:18.817Z,17.53
2019-04-19T20:52:52.783Z,15.20
2019-04-19T20:55:32.631Z,21.30
2019-04-19T20:58:24.274Z,17.43
2019-04-19T21:00:48.478Z,13.73
2019-04-19T21:03:30.372Z,16.80
2019-04-19T21:05:58.083Z,11.50
2019-04-19T21:08:30.276Z,14.20
2019-04-19T21:11:04.658Z,13.37
2019-04-19T21:13:38.168Z,14.13
2019-04-19T21:16:06.681Z,15.90
2019-04-19T21:18:39.037Z,13.00
2019-04-19T21:21:15.862Z,13.83
2019-04-19T21:23:52.169Z,14.40
2019-04-19T21:26:25.352Z,15.50
2019-04-19T21:28:52.634Z,12.87
2019-04-19T21:31:23.791Z,15.40
2019-04-19T21:33:59.863Z,12.10
2019-04-19T21:36:36.976Z,14.70
2019-04-19T21:39:09.514Z,13.83
2019-04-19T21:42:00.217Z,16.43
2019-04-19T21:44:30.602Z,22.03
2019-04-19T21:47:04.945Z,13.00
2019-04-19T21:49:34.923Z,24.77
2019-04-19T21:52:14.035Z,16.23
2019-04-19T21:54:38.849Z,17.03
2019-04-19T21:57:10.824Z,17.33
2019-04-19T21:59:42.579Z,13.00
2019-04-19T22:02:25.695Z,11.60
2019-04-19T22:04:51.236Z,13.60
2019-04-19T22:07:21.271Z,13.03
2019-04-19T22:09:58.045Z,12.60
2019-04-19T22:12:24.660Z,20.17
2019-04-19T22:15:01.615Z,17.20
2019-04-19T22:17:30.066Z,17.77
2019-04-19T22:20:07.971Z,18.10
2019-04-19T22:22:37.289Z,15.23
2019-04-19T22:25:14.283Z,19.93
2019-04-19T22:27:41.913Z,18.37
2019-04-19T22:30:13.703Z,20.67
2019-04-19T22:32:51.298Z,17.03
2019-04-19T22:35:22.641Z,19.13
2019-04-19T22:37:52.604Z,18.80
2019-04-19T22:40:24.733Z,14.43
2019-04-19T22:43:01.608Z,18.43
2019-04-19T22:45:28.719Z,16.37
2019-04-19T22:48:12.832Z,15.20
2019-04-19T22:50:40.127Z,14.70
2019-04-19T22:53:10.571Z,17.63
2019-04-19T22:55:47.232Z,14.40
2019-04-19T22:58:21.244Z,13.50
2019-04-19T23:00:47.639Z,16.60
2019-04-19T23:03:34.085Z,14.73
2019-04-19T23:06:03.643Z,18.97
2019-04-19T23:08:39.457Z,12.80
2019-04-19T23:11:10.959Z,14.37
2019-04-19T23:13:43.280Z,15.03
2019-04-19T23:16:15.348Z,12.97
2019-04-19T23:18:56.870Z,15.30
2019-04-19T23:21:22.908Z,10.27
2019-04-19T23:23:51.450Z,20.87
2019-04-19T23:26:45.764Z,12.50
2019-04-19T23:28:54.954Z,16.10
2019-04-19T23:31:26.493Z,15.10
2019-04-19T23:34:01.639Z,13.13
2019-04-19T23:36:31.183Z,12.27
2019-04-19T23:39:06.141Z,13.90
2019-04-19T23:41:35.246Z,13.20
2019-04-19T23:44:11.193Z,13.17
2019-04-19T23:46:39.206Z,11.03
2019-04-19T23:49:13.508Z,14.50
2019-04-19T23:51:43.229Z,14.47
2019-04-19T23:54:21.894Z,11.67
2019-04-19T23:56:59.056Z,15.47
2019-04-19T23:59:24.423Z,13.77
